sensor_id;sensor_type;location;lat;lon;timestamp;temperature;humidity
15617;DHT22;7908;51.688;7.130;2023-06-04T00:01:34;11.40;99.90
15617;DHT22;7908;51.688;7.130;2023-06-04T00:04:04;11.40;99.90
15617;DHT22;7908;51.688;7.130;2023-06-04T00:06:33;11.40;99.90
15617;DHT22;7908;51.688;7.130;2023-06-04T00:09:03;11.30;99.90
15617;DHT22;7908;51.688;7.130;2023-06-04T00:11:32;11.30;99.90
15617;DHT22;7908;51.688;7.130;2023-06-04T00:14:02;11.30;99.90
15617;DHT22;7908;51.688;7.130;2023-06-04T00:16:31;11.20;99.90
15617;DHT22;7908;51.688;7.130;2023-06-04T00:19:04;11.20;99.90
15617;DHT22;7908;51.688;7.130;2023-06-04T00:21:33;11.10;99.90
15617;DHT22;7908;51.688;7.130;2023-06-04T00:24:02;11.10;99.90
15617;DHT22;7908;51.688;7.130;2023-06-04T00:26:31;11.10;99.90
15617;DHT22;7908;51.688;7.130;2023-06-04T00:29:00;11.00;99.90
15617;DHT22;7908;51.688;7.130;2023-06-04T00:31:29;10.90;99.90
15617;DHT22;7908;51.688;7.130;2023-06-04T00:34:00;10.90;99.90
15617;DHT22;7908;51.688;7.130;2023-06-04T00:36:30;10.80;99.90
15617;DHT22;7908;51.688;7.130;2023-06-04T00:39:00;10.90;99.90
15617;DHT22;7908;51.688;7.130;2023-06-04T00:41:29;10.90;99.90
15617;DHT22;7908;51.688;7.130;2023-06-04T00:43:58;10.80;99.90
15617;DHT22;7908;51.688;7.130;2023-06-04T00:46:29;10.80;99.90
15617;DHT22;7908;51.688;7.130;2023-06-04T00:48:58;10.90;99.90
15617;DHT22;7908;51.688;7.130;2023-06-04T00:51:31;11.00;99.90
15617;DHT22;7908;51.688;7.130;2023-06-04T00:54:02;11.10;99.90
15617;DHT22;7908;51.688;7.130;2023-06-04T00:56:36;11.10;99.90
15617;DHT22;7908;51.688;7.130;2023-06-04T00:59:07;11.10;99.90
15617;DHT22;7908;51.688;7.130;2023-06-04T01:01:42;11.10;99.90
15617;DHT22;7908;51.688;7.130;2023-06-04T01:04:20;11.20;99.90
15617;DHT22;7908;51.688;7.130;2023-06-04T01:06:53;11.30;99.90
15617;DHT22;7908;51.688;7.130;2023-06-04T01:09:26;11.30;99.90
15617;DHT22;7908;51.688;7.130;2023-06-04T01:11:55;11.30;99.90
15617;DHT22;7908;51.688;7.130;2023-06-04T01:14:25;11.30;99.90
15617;DHT22;7908;51.688;7.130;2023-06-04T01:16:56;11.30;99.90
15617;DHT22;7908;51.688;7.130;2023-06-04T01:22:52;11.30;99.90
15617;DHT22;7908;51.688;7.130;2023-06-04T01:25:32;11.30;99.90
15617;DHT22;7908;51.688;7.130;2023-06-04T01:28:01;11.30;99.90
15617;DHT22;7908;51.688;7.130;2023-06-04T01:30:35;11.30;99.90
15617;DHT22;7908;51.688;7.130;2023-06-04T01:33:11;11.30;99.90
15617;DHT22;7908;51.688;7.130;2023-06-04T01:35:40;11.30;99.90
15617;DHT22;7908;51.688;7.130;2023-06-04T01:38:13;11.30;99.90
15617;DHT22;7908;51.688;7.130;2023-06-04T01:40:41;11.30;99.90
15617;DHT22;7908;51.688;7.130;2023-06-04T01:43:10;11.30;99.90
15617;DHT22;7908;51.688;7.130;2023-06-04T01:45:39;11.30;99.90
15617;DHT22;7908;51.688;7.130;2023-06-04T01:48:08;11.30;99.90
15617;DHT22;7908;51.688;7.130;2023-06-04T01:50:36;11.30;99.90
15617;DHT22;7908;51.688;7.130;2023-06-04T01:53:05;11.20;99.90
15617;DHT22;7908;51.688;7.130;2023-06-04T01:55:36;11.20;99.90
15617;DHT22;7908;51.688;7.130;2023-06-04T01:58:05;11.10;99.90
15617;DHT22;7908;51.688;7.130;2023-06-04T02:00:37;11.00;99.90
15617;DHT22;7908;51.688;7.130;2023-06-04T02:03:07;11.00;99.90
15617;DHT22;7908;51.688;7.130;2023-06-04T02:05:37;10.90;99.90
15617;DHT22;7908;51.688;7.130;2023-06-04T02:08:06;10.80;99.90
15617;DHT22;7908;51.688;7.130;2023-06-04T02:10:38;10.80;99.90
15617;DHT22;7908;51.688;7.130;2023-06-04T02:13:07;10.80;99.90
15617;DHT22;7908;51.688;7.130;2023-06-04T02:15:36;10.70;99.90
15617;DHT22;7908;51.688;7.130;2023-06-04T02:18:13;10.70;99.90
15617;DHT22;7908;51.688;7.130;2023-06-04T02:20:44;10.60;99.90
15617;DHT22;7908;51.688;7.130;2023-06-04T02:23:14;10.60;99.90
15617;DHT22;7908;51.688;7.130;2023-06-04T02:25:45;10.50;99.90
15617;DHT22;7908;51.688;7.130;2023-06-04T02:28:13;10.50;99.90
15617;DHT22;7908;51.688;7.130;2023-06-04T02:30:44;10.50;99.90
15617;DHT22;7908;51.688;7.130;2023-06-04T02:33:14;10.40;99.90
15617;DHT22;7908;51.688;7.130;2023-06-04T02:35:45;10.40;99.90
15617;DHT22;7908;51.688;7.130;2023-06-04T02:38:14;10.40;99.90
15617;DHT22;7908;51.688;7.130;2023-06-04T02:40:45;10.30;99.90
15617;DHT22;7908;51.688;7.130;2023-06-04T02:43:14;10.30;99.90
15617;DHT22;7908;51.688;7.130;2023-06-04T02:45:42;10.30;99.90
15617;DHT22;7908;51.688;7.130;2023-06-04T02:48:12;10.30;99.90
15617;DHT22;7908;51.688;7.130;2023-06-04T02:50:41;10.30;99.90
15617;DHT22;7908;51.688;7.130;2023-06-04T02:53:10;10.30;99.90
15617;DHT22;7908;51.688;7.130;2023-06-04T02:55:39;10.30;99.90
15617;DHT22;7908;51.688;7.130;2023-06-04T02:58:10;10.20;99.90
15617;DHT22;7908;51.688;7.130;2023-06-04T03:00:38;10.20;99.90
15617;DHT22;7908;51.688;7.130;2023-06-04T03:03:08;10.10;99.90
15617;DHT22;7908;51.688;7.130;2023-06-04T03:05:38;10.10;99.90
15617;DHT22;7908;51.688;7.130;2023-06-04T03:08:07;10.10;99.90
15617;DHT22;7908;51.688;7.130;2023-06-04T03:10:35;10.00;99.90
15617;DHT22;7908;51.688;7.130;2023-06-04T03:13:04;10.00;99.90
15617;DHT22;7908;51.688;7.130;2023-06-04T03:15:34;10.00;99.90
15617;DHT22;7908;51.688;7.130;2023-06-04T03:18:07;10.00;99.90
15617;DHT22;7908;51.688;7.130;2023-06-04T03:20:36;10.00;99.90
15617;DHT22;7908;51.688;7.130;2023-06-04T03:23:06;9.90;99.90
15617;DHT22;7908;51.688;7.130;2023-06-04T03:25:35;9.90;99.90
15617;DHT22;7908;51.688;7.130;2023-06-04T03:28:05;9.90;99.90
15617;DHT22;7908;51.688;7.130;2023-06-04T03:30:35;9.90;99.90
15617;DHT22;7908;51.688;7.130;2023-06-04T03:33:04;9.90;99.90
15617;DHT22;7908;51.688;7.130;2023-06-04T03:35:33;9.90;99.90
15617;DHT22;7908;51.688;7.130;2023-06-04T03:38:03;9.80;99.90
15617;DHT22;7908;51.688;7.130;2023-06-04T03:40:31;9.80;99.90
15617;DHT22;7908;51.688;7.130;2023-06-04T03:43:00;9.80;99.90
15617;DHT22;7908;51.688;7.130;2023-06-04T03:45:31;9.80;99.90
15617;DHT22;7908;51.688;7.130;2023-06-04T03:48:02;9.80;99.90
15617;DHT22;7908;51.688;7.130;2023-06-04T03:50:31;9.70;99.90
15617;DHT22;7908;51.688;7.130;2023-06-04T03:52:59;9.70;99.90
15617;DHT22;7908;51.688;7.130;2023-06-04T03:55:28;9.70;99.90
15617;DHT22;7908;51.688;7.130;2023-06-04T03:57:59;9.70;99.90
15617;DHT22;7908;51.688;7.130;2023-06-04T04:00:28;9.70;99.90
15617;DHT22;7908;51.688;7.130;2023-06-04T04:02:57;9.70;99.90
15617;DHT22;7908;51.688;7.130;2023-06-04T04:05:28;9.70;99.90
15617;DHT22;7908;51.688;7.130;2023-06-04T04:07:57;9.70;99.90
15617;DHT22;7908;51.688;7.130;2023-06-04T04:10:27;9.70;99.90
15617;DHT22;7908;51.688;7.130;2023-06-04T04:12:55;9.70;99.90
15617;DHT22;7908;51.688;7.130;2023-06-04T04:15:26;9.80;99.90
15617;DHT22;7908;51.688;7.130;2023-06-04T04:17:55;9.80;99.90
15617;DHT22;7908;51.688;7.130;2023-06-04T04:20:27;9.90;99.90
15617;DHT22;7908;51.688;7.130;2023-06-04T04:22:57;9.90;99.90
15617;DHT22;7908;51.688;7.130;2023-06-04T04:25:27;9.90;99.90
15617;DHT22;7908;51.688;7.130;2023-06-04T04:27:57;10.00;99.90
15617;DHT22;7908;51.688;7.130;2023-06-04T04:30:27;10.00;99.90
15617;DHT22;7908;51.688;7.130;2023-06-04T04:32:59;10.10;99.90
15617;DHT22;7908;51.688;7.130;2023-06-04T04:35:30;10.10;99.90
15617;DHT22;7908;51.688;7.130;2023-06-04T04:38:01;10.30;99.90
15617;DHT22;7908;51.688;7.130;2023-06-04T04:40:30;10.50;99.90
15617;DHT22;7908;51.688;7.130;2023-06-04T04:42:59;10.80;99.90
15617;DHT22;7908;51.688;7.130;2023-06-04T04:45:28;11.10;99.90
15617;DHT22;7908;51.688;7.130;2023-06-04T04:47:57;11.30;99.90
15617;DHT22;7908;51.688;7.130;2023-06-04T04:50:25;11.60;99.90
15617;DHT22;7908;51.688;7.130;2023-06-04T04:52:55;11.80;99.90
15617;DHT22;7908;51.688;7.130;2023-06-04T04:55:24;12.10;99.90
15617;DHT22;7908;51.688;7.130;2023-06-04T04:57:55;12.30;99.90
15617;DHT22;7908;51.688;7.130;2023-06-04T05:00:23;12.50;99.90
15617;DHT22;7908;51.688;7.130;2023-06-04T05:02:54;12.70;99.90
15617;DHT22;7908;51.688;7.130;2023-06-04T05:05:23;12.90;99.90
15617;DHT22;7908;51.688;7.130;2023-06-04T05:07:52;13.10;99.90
15617;DHT22;7908;51.688;7.130;2023-06-04T05:10:22;13.20;99.90
15617;DHT22;7908;51.688;7.130;2023-06-04T05:12:51;13.20;99.90
15617;DHT22;7908;51.688;7.130;2023-06-04T05:15:21;13.40;99.90
15617;DHT22;7908;51.688;7.130;2023-06-04T05:17:58;13.60;99.90
15617;DHT22;7908;51.688;7.130;2023-06-04T05:20:28;13.70;99.90
15617;DHT22;7908;51.688;7.130;2023-06-04T05:22:57;13.80;99.90
15617;DHT22;7908;51.688;7.130;2023-06-04T05:25:27;13.90;99.90
15617;DHT22;7908;51.688;7.130;2023-06-04T05:27:56;14.00;99.90
15617;DHT22;7908;51.688;7.130;2023-06-04T05:30:25;14.10;99.90
15617;DHT22;7908;51.688;7.130;2023-06-04T05:32:55;14.00;99.90
15617;DHT22;7908;51.688;7.130;2023-06-04T05:35:32;14.20;99.90
15617;DHT22;7908;51.688;7.130;2023-06-04T05:38:01;14.20;99.90
15617;DHT22;7908;51.688;7.130;2023-06-04T05:40:34;14.20;99.90
15617;DHT22;7908;51.688;7.130;2023-06-04T05:43:03;14.40;99.90
15617;DHT22;7908;51.688;7.130;2023-06-04T05:45:32;14.50;99.90
15617;DHT22;7908;51.688;7.130;2023-06-04T05:48:03;14.60;99.90
15617;DHT22;7908;51.688;7.130;2023-06-04T05:50:32;14.60;99.90
15617;DHT22;7908;51.688;7.130;2023-06-04T05:53:00;14.60;99.90
15617;DHT22;7908;51.688;7.130;2023-06-04T05:55:29;14.60;99.90
15617;DHT22;7908;51.688;7.130;2023-06-04T05:58:01;14.60;99.90
15617;DHT22;7908;51.688;7.130;2023-06-04T06:00:30;14.70;99.90
15617;DHT22;7908;51.688;7.130;2023-06-04T06:02:58;14.70;99.90
15617;DHT22;7908;51.688;7.130;2023-06-04T06:05:29;14.80;99.90
15617;DHT22;7908;51.688;7.130;2023-06-04T06:07:58;14.90;99.90
15617;DHT22;7908;51.688;7.130;2023-06-04T06:10:27;14.90;99.90
15617;DHT22;7908;51.688;7.130;2023-06-04T06:12:56;15.00;99.90
15617;DHT22;7908;51.688;7.130;2023-06-04T06:15:27;15.10;99.90
15617;DHT22;7908;51.688;7.130;2023-06-04T06:17:56;15.10;99.90
15617;DHT22;7908;51.688;7.130;2023-06-04T06:20:25;15.20;99.90
15617;DHT22;7908;51.688;7.130;2023-06-04T06:22:54;15.40;99.90
15617;DHT22;7908;51.688;7.130;2023-06-04T06:25:23;15.50;99.90
15617;DHT22;7908;51.688;7.130;2023-06-04T06:27:52;15.60;99.90
15617;DHT22;7908;51.688;7.130;2023-06-04T06:30:21;15.80;99.90
15617;DHT22;7908;51.688;7.130;2023-06-04T06:32:55;15.90;99.90
15617;DHT22;7908;51.688;7.130;2023-06-04T06:35:27;16.10;99.90
15617;DHT22;7908;51.688;7.130;2023-06-04T06:37:57;16.10;99.90
15617;DHT22;7908;51.688;7.130;2023-06-04T06:40:26;16.30;99.90
15617;DHT22;7908;51.688;7.130;2023-06-04T06:42:57;16.50;99.90
15617;DHT22;7908;51.688;7.130;2023-06-04T06:45:26;16.60;99.90
15617;DHT22;7908;51.688;7.130;2023-06-04T06:47:56;16.80;99.90
15617;DHT22;7908;51.688;7.130;2023-06-04T06:50:25;16.90;99.90
15617;DHT22;7908;51.688;7.130;2023-06-04T06:52:54;17.00;99.90
15617;DHT22;7908;51.688;7.130;2023-06-04T06:55:23;17.10;99.90
15617;DHT22;7908;51.688;7.130;2023-06-04T06:57:52;17.20;99.90
15617;DHT22;7908;51.688;7.130;2023-06-04T07:00:23;17.30;99.90
15617;DHT22;7908;51.688;7.130;2023-06-04T07:02:52;17.40;99.90
15617;DHT22;7908;51.688;7.130;2023-06-04T07:05:22;17.60;99.90
15617;DHT22;7908;51.688;7.130;2023-06-04T07:07:53;17.80;99.90
15617;DHT22;7908;51.688;7.130;2023-06-04T07:10:24;17.90;99.90
15617;DHT22;7908;51.688;7.130;2023-06-04T07:12:52;17.90;99.90
15617;DHT22;7908;51.688;7.130;2023-06-04T07:15:27;18.00;99.90
15617;DHT22;7908;51.688;7.130;2023-06-04T07:17:56;18.10;99.90
15617;DHT22;7908;51.688;7.130;2023-06-04T07:20:26;18.10;99.90
15617;DHT22;7908;51.688;7.130;2023-06-04T07:22:55;18.20;99.90
15617;DHT22;7908;51.688;7.130;2023-06-04T07:25:24;18.20;99.90
15617;DHT22;7908;51.688;7.130;2023-06-04T07:27:53;18.10;99.90
15617;DHT22;7908;51.688;7.130;2023-06-04T07:30:25;18.20;99.90
15617;DHT22;7908;51.688;7.130;2023-06-04T07:32:54;18.40;99.90
15617;DHT22;7908;51.688;7.130;2023-06-04T07:35:23;18.40;99.90
15617;DHT22;7908;51.688;7.130;2023-06-04T07:37:55;18.50;99.00
15617;DHT22;7908;51.688;7.130;2023-06-04T07:40:24;18.30;97.60
15617;DHT22;7908;51.688;7.130;2023-06-04T07:42:52;18.30;98.40
15617;DHT22;7908;51.688;7.130;2023-06-04T07:45:21;18.40;97.90
15617;DHT22;7908;51.688;7.130;2023-06-04T07:47:51;18.30;97.80
15617;DHT22;7908;51.688;7.130;2023-06-04T07:50:20;18.40;98.10
15617;DHT22;7908;51.688;7.130;2023-06-04T07:52:49;18.40;97.30
15617;DHT22;7908;51.688;7.130;2023-06-04T07:55:19;18.50;97.60
15617;DHT22;7908;51.688;7.130;2023-06-04T07:57:48;18.60;97.40
15617;DHT22;7908;51.688;7.130;2023-06-04T08:00:17;18.70;98.20
15617;DHT22;7908;51.688;7.130;2023-06-04T08:02:47;18.80;98.10
15617;DHT22;7908;51.688;7.130;2023-06-04T08:05:18;18.80;96.20
15617;DHT22;7908;51.688;7.130;2023-06-04T08:07:47;18.90;96.40
15617;DHT22;7908;51.688;7.130;2023-06-04T08:10:16;19.00;96.10
15617;DHT22;7908;51.688;7.130;2023-06-04T08:12:46;19.00;95.70
15617;DHT22;7908;51.688;7.130;2023-06-04T08:15:16;19.10;95.90
15617;DHT22;7908;51.688;7.130;2023-06-04T08:17:45;19.20;94.60
15617;DHT22;7908;51.688;7.130;2023-06-04T08:20:15;19.30;94.20
15617;DHT22;7908;51.688;7.130;2023-06-04T08:22:44;19.30;93.60
15617;DHT22;7908;51.688;7.130;2023-06-04T08:25:12;19.40;94.20
15617;DHT22;7908;51.688;7.130;2023-06-04T08:27:45;19.50;94.40
15617;DHT22;7908;51.688;7.130;2023-06-04T08:30:14;19.50;93.50
15617;DHT22;7908;51.688;7.130;2023-06-04T08:32:43;19.60;93.30
15617;DHT22;7908;51.688;7.130;2023-06-04T08:35:12;19.60;92.60
15617;DHT22;7908;51.688;7.130;2023-06-04T08:37:41;19.80;93.50
15617;DHT22;7908;51.688;7.130;2023-06-04T08:40:12;19.80;93.10
15617;DHT22;7908;51.688;7.130;2023-06-04T08:42:43;19.90;92.70
15617;DHT22;7908;51.688;7.130;2023-06-04T08:45:14;19.90;92.50
15617;DHT22;7908;51.688;7.130;2023-06-04T08:47:47;20.00;92.90
15617;DHT22;7908;51.688;7.130;2023-06-04T08:50:18;20.10;91.30
15617;DHT22;7908;51.688;7.130;2023-06-04T08:52:47;20.30;92.60
15617;DHT22;7908;51.688;7.130;2023-06-04T08:55:17;20.40;92.50
15617;DHT22;7908;51.688;7.130;2023-06-04T08:57:47;20.50;90.30
15617;DHT22;7908;51.688;7.130;2023-06-04T09:00:20;20.50;90.90
15617;DHT22;7908;51.688;7.130;2023-06-04T09:02:50;20.50;88.20
15617;DHT22;7908;51.688;7.130;2023-06-04T09:05:20;20.50;86.60
15617;DHT22;7908;51.688;7.130;2023-06-04T09:07:53;20.60;87.20
15617;DHT22;7908;51.688;7.130;2023-06-04T09:10:24;20.60;82.60
15617;DHT22;7908;51.688;7.130;2023-06-04T09:13:01;20.60;79.60
15617;DHT22;7908;51.688;7.130;2023-06-04T09:15:33;20.50;77.90
15617;DHT22;7908;51.688;7.130;2023-06-04T09:18:02;20.50;79.60
15617;DHT22;7908;51.688;7.130;2023-06-04T09:20:32;20.60;75.60
15617;DHT22;7908;51.688;7.130;2023-06-04T09:23:00;20.60;73.00
15617;DHT22;7908;51.688;7.130;2023-06-04T09:25:29;20.70;73.10
15617;DHT22;7908;51.688;7.130;2023-06-04T09:28:06;20.70;73.60
15617;DHT22;7908;51.688;7.130;2023-06-04T09:30:39;20.70;73.20
15617;DHT22;7908;51.688;7.130;2023-06-04T09:33:08;20.70;72.60
15617;DHT22;7908;51.688;7.130;2023-06-04T09:35:41;20.70;73.90
15617;DHT22;7908;51.688;7.130;2023-06-04T09:38:10;20.60;71.30
15617;DHT22;7908;51.688;7.130;2023-06-04T09:40:39;20.60;71.60
15617;DHT22;7908;51.688;7.130;2023-06-04T09:43:09;20.50;69.50
15617;DHT22;7908;51.688;7.130;2023-06-04T09:45:41;20.60;71.10
15617;DHT22;7908;51.688;7.130;2023-06-04T09:48:19;20.70;73.40
15617;DHT22;7908;51.688;7.130;2023-06-04T09:50:48;20.70;71.40
15617;DHT22;7908;51.688;7.130;2023-06-04T09:53:19;20.80;70.90
15617;DHT22;7908;51.688;7.130;2023-06-04T09:55:56;21.00;71.70
15617;DHT22;7908;51.688;7.130;2023-06-04T09:58:27;21.30;70.90
15617;DHT22;7908;51.688;7.130;2023-06-04T10:00:58;21.40;69.70
15617;DHT22;7908;51.688;7.130;2023-06-04T10:03:31;21.40;69.00
15617;DHT22;7908;51.688;7.130;2023-06-04T10:06:03;21.40;67.60
15617;DHT22;7908;51.688;7.130;2023-06-04T10:08:33;21.30;68.60
15617;DHT22;7908;51.688;7.130;2023-06-04T10:11:03;21.20;67.10
15617;DHT22;7908;51.688;7.130;2023-06-04T10:13:41;21.10;65.70
15617;DHT22;7908;51.688;7.130;2023-06-04T10:16:17;21.00;66.50
15617;DHT22;7908;51.688;7.130;2023-06-04T10:19:00;21.10;66.60
15617;DHT22;7908;51.688;7.130;2023-06-04T10:21:30;21.10;66.40
15617;DHT22;7908;51.688;7.130;2023-06-04T10:24:02;21.20;66.90
15617;DHT22;7908;51.688;7.130;2023-06-04T10:26:33;21.40;68.00
15617;DHT22;7908;51.688;7.130;2023-06-04T10:29:06;21.50;66.80
15617;DHT22;7908;51.688;7.130;2023-06-04T10:31:38;21.70;68.10
15617;DHT22;7908;51.688;7.130;2023-06-04T10:34:09;21.60;65.20
15617;DHT22;7908;51.688;7.130;2023-06-04T10:36:43;21.70;65.00
15617;DHT22;7908;51.688;7.130;2023-06-04T10:39:12;21.70;63.00
15617;DHT22;7908;51.688;7.130;2023-06-04T10:41:43;21.60;64.00
15617;DHT22;7908;51.688;7.130;2023-06-04T10:44:12;21.60;61.00
15617;DHT22;7908;51.688;7.130;2023-06-04T10:46:45;21.60;60.00
15617;DHT22;7908;51.688;7.130;2023-06-04T10:49:26;21.60;61.10
15617;DHT22;7908;51.688;7.130;2023-06-04T10:51:57;21.60;61.90
15617;DHT22;7908;51.688;7.130;2023-06-04T10:54:30;21.70;61.70
15617;DHT22;7908;51.688;7.130;2023-06-04T10:57:10;21.70;63.00
15617;DHT22;7908;51.688;7.130;2023-06-04T10:59:40;21.70;63.20
15617;DHT22;7908;51.688;7.130;2023-06-04T11:02:11;21.80;62.60
15617;DHT22;7908;51.688;7.130;2023-06-04T11:04:41;21.80;62.70
15617;DHT22;7908;51.688;7.130;2023-06-04T11:07:11;21.80;60.50
15617;DHT22;7908;51.688;7.130;2023-06-04T11:09:48;21.70;60.10
15617;DHT22;7908;51.688;7.130;2023-06-04T11:12:19;21.70;61.10
15617;DHT22;7908;51.688;7.130;2023-06-04T11:14:55;21.80;59.80
15617;DHT22;7908;51.688;7.130;2023-06-04T11:17:29;21.70;59.20
15617;DHT22;7908;51.688;7.130;2023-06-04T11:19:59;21.70;60.40
15617;DHT22;7908;51.688;7.130;2023-06-04T11:22:28;21.70;60.60
15617;DHT22;7908;51.688;7.130;2023-06-04T11:24:57;21.80;61.60
15617;DHT22;7908;51.688;7.130;2023-06-04T11:27:27;21.80;60.30
15617;DHT22;7908;51.688;7.130;2023-06-04T11:30:06;21.80;61.90
15617;DHT22;7908;51.688;7.130;2023-06-04T11:32:37;21.70;59.30
15617;DHT22;7908;51.688;7.130;2023-06-04T11:35:06;21.80;59.20
15617;DHT22;7908;51.688;7.130;2023-06-04T11:37:36;21.80;59.40
15617;DHT22;7908;51.688;7.130;2023-06-04T11:40:15;22.00;59.80
15617;DHT22;7908;51.688;7.130;2023-06-04T11:42:47;22.00;59.90
15617;DHT22;7908;51.688;7.130;2023-06-04T11:45:16;21.90;59.00
15617;DHT22;7908;51.688;7.130;2023-06-04T11:47:49;22.00;59.20
15617;DHT22;7908;51.688;7.130;2023-06-04T11:50:18;21.90;58.60
15617;DHT22;7908;51.688;7.130;2023-06-04T11:52:48;22.10;58.40
15617;DHT22;7908;51.688;7.130;2023-06-04T11:55:18;22.10;58.00
15617;DHT22;7908;51.688;7.130;2023-06-04T11:57:48;22.20;57.90
15617;DHT22;7908;51.688;7.130;2023-06-04T12:00:18;22.20;59.20
15617;DHT22;7908;51.688;7.130;2023-06-04T12:03:03;22.40;60.00
15617;DHT22;7908;51.688;7.130;2023-06-04T12:05:32;22.50;58.20
15617;DHT22;7908;51.688;7.130;2023-06-04T12:08:05;22.40;59.10
15617;DHT22;7908;51.688;7.130;2023-06-04T12:10:41;22.50;59.20
15617;DHT22;7908;51.688;7.130;2023-06-04T12:13:10;22.50;58.00
15617;DHT22;7908;51.688;7.130;2023-06-04T12:15:41;22.50;56.70
15617;DHT22;7908;51.688;7.130;2023-06-04T12:18:11;22.40;56.00
15617;DHT22;7908;51.688;7.130;2023-06-04T12:20:41;22.30;56.50
15617;DHT22;7908;51.688;7.130;2023-06-04T12:23:20;22.40;56.10
15617;DHT22;7908;51.688;7.130;2023-06-04T12:25:50;22.20;55.70
15617;DHT22;7908;51.688;7.130;2023-06-04T12:28:20;22.40;57.70
15617;DHT22;7908;51.688;7.130;2023-06-04T12:30:50;22.50;57.70
15617;DHT22;7908;51.688;7.130;2023-06-04T12:33:20;22.60;57.80
15617;DHT22;7908;51.688;7.130;2023-06-04T12:35:50;22.60;57.30
15617;DHT22;7908;51.688;7.130;2023-06-04T12:38:19;22.40;56.40
15617;DHT22;7908;51.688;7.130;2023-06-04T12:40:48;22.30;57.20
15617;DHT22;7908;51.688;7.130;2023-06-04T12:43:17;22.40;58.30
15617;DHT22;7908;51.688;7.130;2023-06-04T12:45:46;22.40;56.70
15617;DHT22;7908;51.688;7.130;2023-06-04T12:48:16;22.40;57.80
15617;DHT22;7908;51.688;7.130;2023-06-04T12:50:47;22.40;56.60
15617;DHT22;7908;51.688;7.130;2023-06-04T12:53:16;22.40;56.80
15617;DHT22;7908;51.688;7.130;2023-06-04T12:55:45;22.40;56.90
15617;DHT22;7908;51.688;7.130;2023-06-04T12:58:14;22.40;56.60
15617;DHT22;7908;51.688;7.130;2023-06-04T13:00:44;22.50;55.90
15617;DHT22;7908;51.688;7.130;2023-06-04T13:03:14;22.50;55.20
15617;DHT22;7908;51.688;7.130;2023-06-04T13:05:43;22.50;55.60
15617;DHT22;7908;51.688;7.130;2023-06-04T13:08:17;22.50;56.00
15617;DHT22;7908;51.688;7.130;2023-06-04T13:10:46;22.70;56.80
15617;DHT22;7908;51.688;7.130;2023-06-04T13:13:15;22.80;56.90
15617;DHT22;7908;51.688;7.130;2023-06-04T13:15:45;22.90;57.50
15617;DHT22;7908;51.688;7.130;2023-06-04T13:18:15;22.90;57.00
15617;DHT22;7908;51.688;7.130;2023-06-04T13:20:44;22.90;56.30
15617;DHT22;7908;51.688;7.130;2023-06-04T13:23:13;23.00;55.70
15617;DHT22;7908;51.688;7.130;2023-06-04T13:25:44;22.90;56.50
15617;DHT22;7908;51.688;7.130;2023-06-04T13:28:13;22.90;56.70
15617;DHT22;7908;51.688;7.130;2023-06-04T13:30:43;23.00;57.70
15617;DHT22;7908;51.688;7.130;2023-06-04T13:33:13;23.00;56.90
15617;DHT22;7908;51.688;7.130;2023-06-04T13:35:43;23.00;56.60
15617;DHT22;7908;51.688;7.130;2023-06-04T13:38:12;23.00;57.30
15617;DHT22;7908;51.688;7.130;2023-06-04T13:40:44;23.00;57.30
15617;DHT22;7908;51.688;7.130;2023-06-04T13:43:13;23.20;56.50
15617;DHT22;7908;51.688;7.130;2023-06-04T13:45:43;23.20;55.60
15617;DHT22;7908;51.688;7.130;2023-06-04T13:48:14;23.40;56.00
15617;DHT22;7908;51.688;7.130;2023-06-04T13:50:43;23.40;55.60
15617;DHT22;7908;51.688;7.130;2023-06-04T13:53:13;23.30;55.70
15617;DHT22;7908;51.688;7.130;2023-06-04T13:55:41;23.20;55.90
15617;DHT22;7908;51.688;7.130;2023-06-04T13:58:13;23.20;55.60
15617;DHT22;7908;51.688;7.130;2023-06-04T14:00:43;23.30;56.60
15617;DHT22;7908;51.688;7.130;2023-06-04T14:03:13;23.40;56.80
15617;DHT22;7908;51.688;7.130;2023-06-04T14:05:42;23.50;56.70
15617;DHT22;7908;51.688;7.130;2023-06-04T14:08:11;23.50;57.20
15617;DHT22;7908;51.688;7.130;2023-06-04T14:10:43;23.60;56.40
15617;DHT22;7908;51.688;7.130;2023-06-04T14:13:13;23.70;56.80
15617;DHT22;7908;51.688;7.130;2023-06-04T14:15:42;23.70;55.30
15617;DHT22;7908;51.688;7.130;2023-06-04T14:18:11;23.70;56.80
15617;DHT22;7908;51.688;7.130;2023-06-04T14:20:40;23.60;55.80
15617;DHT22;7908;51.688;7.130;2023-06-04T14:23:10;23.60;56.40
15617;DHT22;7908;51.688;7.130;2023-06-04T14:25:39;23.60;55.10
15617;DHT22;7908;51.688;7.130;2023-06-04T14:28:08;23.60;56.30
15617;DHT22;7908;51.688;7.130;2023-06-04T14:30:40;23.60;56.30
15617;DHT22;7908;51.688;7.130;2023-06-04T14:33:09;23.60;55.70
15617;DHT22;7908;51.688;7.130;2023-06-04T14:35:38;23.60;55.60
15617;DHT22;7908;51.688;7.130;2023-06-04T14:38:14;23.70;56.70
15617;DHT22;7908;51.688;7.130;2023-06-04T14:40:43;23.70;56.20
15617;DHT22;7908;51.688;7.130;2023-06-04T14:43:13;23.70;55.50
15617;DHT22;7908;51.688;7.130;2023-06-04T14:45:44;23.80;55.90
15617;DHT22;7908;51.688;7.130;2023-06-04T14:48:16;23.90;56.10
15617;DHT22;7908;51.688;7.130;2023-06-04T14:50:46;23.80;56.00
15617;DHT22;7908;51.688;7.130;2023-06-04T14:53:15;23.90;55.60
15617;DHT22;7908;51.688;7.130;2023-06-04T14:55:44;23.80;55.70
15617;DHT22;7908;51.688;7.130;2023-06-04T14:58:16;23.70;57.10
15617;DHT22;7908;51.688;7.130;2023-06-04T15:00:47;23.80;55.90
15617;DHT22;7908;51.688;7.130;2023-06-04T15:03:17;23.80;55.30
15617;DHT22;7908;51.688;7.130;2023-06-04T15:05:49;23.70;56.10
15617;DHT22;7908;51.688;7.130;2023-06-04T15:08:20;23.90;56.60
15617;DHT22;7908;51.688;7.130;2023-06-04T15:10:49;23.90;56.00
15617;DHT22;7908;51.688;7.130;2023-06-04T15:13:18;23.90;55.00
15617;DHT22;7908;51.688;7.130;2023-06-04T15:15:49;23.90;54.80
15617;DHT22;7908;51.688;7.130;2023-06-04T15:18:19;23.90;55.90
15617;DHT22;7908;51.688;7.130;2023-06-04T15:20:48;24.00;55.90
15617;DHT22;7908;51.688;7.130;2023-06-04T15:23:17;24.00;55.30
15617;DHT22;7908;51.688;7.130;2023-06-04T15:25:46;24.10;55.30
15617;DHT22;7908;51.688;7.130;2023-06-04T15:28:15;24.00;55.40
15617;DHT22;7908;51.688;7.130;2023-06-04T15:30:46;24.00;55.10
15617;DHT22;7908;51.688;7.130;2023-06-04T15:33:17;24.00;54.40
15617;DHT22;7908;51.688;7.130;2023-06-04T15:35:45;24.00;55.40
15617;DHT22;7908;51.688;7.130;2023-06-04T15:38:15;24.00;54.90
15617;DHT22;7908;51.688;7.130;2023-06-04T15:40:44;24.10;55.40
15617;DHT22;7908;51.688;7.130;2023-06-04T15:43:14;24.00;54.10
15617;DHT22;7908;51.688;7.130;2023-06-04T15:45:43;24.10;55.00
15617;DHT22;7908;51.688;7.130;2023-06-04T15:48:13;24.10;53.70
15617;DHT22;7908;51.688;7.130;2023-06-04T15:50:45;24.10;53.10
15617;DHT22;7908;51.688;7.130;2023-06-04T15:53:15;24.00;53.60
15617;DHT22;7908;51.688;7.130;2023-06-04T15:55:45;24.00;54.20
15617;DHT22;7908;51.688;7.130;2023-06-04T15:58:14;24.00;54.10
15617;DHT22;7908;51.688;7.130;2023-06-04T16:00:44;24.00;55.40
15617;DHT22;7908;51.688;7.130;2023-06-04T16:03:13;24.00;54.60
15617;DHT22;7908;51.688;7.130;2023-06-04T16:05:45;24.00;54.20
15617;DHT22;7908;51.688;7.130;2023-06-04T16:08:15;24.00;54.80
15617;DHT22;7908;51.688;7.130;2023-06-04T16:10:44;23.90;56.00